sensor_id;sensor_type;location;lat;lon;timestamp;temperature;humidity
728;DHT22;347;48.780;9.158;2024-01-11T00:00:55;3.50;13.50
728;DHT22;347;48.780;9.158;2024-01-11T00:03:22;3.70;13.20
728;DHT22;347;48.780;9.158;2024-01-11T00:05:58;3.70;13.00
728;DHT22;347;48.780;9.158;2024-01-11T00:08:26;3.70;13.00
728;DHT22;347;48.780;9.158;2024-01-11T00:10:57;3.70;12.90
728;DHT22;347;48.780;9.158;2024-01-11T00:13:27;3.70;12.90
728;DHT22;347;48.780;9.158;2024-01-11T00:15:55;3.70;12.90
728;DHT22;347;48.780;9.158;2024-01-11T00:18:24;3.70;13.00
728;DHT22;347;48.780;9.158;2024-01-11T00:20:50;3.70;13.00
728;DHT22;347;48.780;9.158;2024-01-11T00:23:18;3.70;13.00
728;DHT22;347;48.780;9.158;2024-01-11T00:25:48;3.80;12.90
728;DHT22;347;48.780;9.158;2024-01-11T00:28:14;3.70;12.80
728;DHT22;347;48.780;9.158;2024-01-11T00:30:39;3.70;12.90
728;DHT22;347;48.780;9.158;2024-01-11T00:33:13;3.70;13.20
728;DHT22;347;48.780;9.158;2024-01-11T00:35:39;3.70;13.20
728;DHT22;347;48.780;9.158;2024-01-11T00:38:05;3.60;13.20
728;DHT22;347;48.780;9.158;2024-01-11T00:40:31;3.70;13.10
728;DHT22;347;48.780;9.158;2024-01-11T00:42:56;3.40;13.40
728;DHT22;347;48.780;9.158;2024-01-11T00:45:22;3.20;14.00
728;DHT22;347;48.780;9.158;2024-01-11T00:47:47;2.90;14.70
728;DHT22;347;48.780;9.158;2024-01-11T00:50:13;2.40;15.50
728;DHT22;347;48.780;9.158;2024-01-11T00:52:38;2.00;16.60
728;DHT22;347;48.780;9.158;2024-01-11T00:55:04;1.70;17.10
728;DHT22;347;48.780;9.158;2024-01-11T00:57:30;1.50;17.70
728;DHT22;347;48.780;9.158;2024-01-11T00:59:55;1.30;18.50
728;DHT22;347;48.780;9.158;2024-01-11T01:02:21;1.30;18.50
728;DHT22;347;48.780;9.158;2024-01-11T01:04:46;1.40;18.60
728;DHT22;347;48.780;9.158;2024-01-11T01:07:12;1.70;18.70
728;DHT22;347;48.780;9.158;2024-01-11T01:09:38;2.10;17.90
728;DHT22;347;48.780;9.158;2024-01-11T01:12:05;2.50;17.10
728;DHT22;347;48.780;9.158;2024-01-11T01:14:30;2.70;16.40
728;DHT22;347;48.780;9.158;2024-01-11T01:16:56;2.90;15.80
728;DHT22;347;48.780;9.158;2024-01-11T01:19:21;2.90;15.40
728;DHT22;347;48.780;9.158;2024-01-11T01:21:47;3.00;15.20
728;DHT22;347;48.780;9.158;2024-01-11T01:24:12;3.20;14.90
728;DHT22;347;48.780;9.158;2024-01-11T01:26:38;3.30;14.60
728;DHT22;347;48.780;9.158;2024-01-11T01:29:04;3.30;14.30
728;DHT22;347;48.780;9.158;2024-01-11T01:31:30;3.10;14.50
728;DHT22;347;48.780;9.158;2024-01-11T01:34:03;2.30;15.90
728;DHT22;347;48.780;9.158;2024-01-11T01:36:28;1.80;17.10
728;DHT22;347;48.780;9.158;2024-01-11T01:38:54;1.40;19.10
728;DHT22;347;48.780;9.158;2024-01-11T01:41:19;1.40;18.60
728;DHT22;347;48.780;9.158;2024-01-11T01:43:45;1.60;18.60
728;DHT22;347;48.780;9.158;2024-01-11T01:46:10;2.00;17.80
728;DHT22;347;48.780;9.158;2024-01-11T01:48:36;2.30;17.10
728;DHT22;347;48.780;9.158;2024-01-11T01:51:04;2.60;16.40
728;DHT22;347;48.780;9.158;2024-01-11T01:53:30;2.70;15.80
728;DHT22;347;48.780;9.158;2024-01-11T01:55:56;2.90;15.50
728;DHT22;347;48.780;9.158;2024-01-11T01:58:22;3.00;15.00
728;DHT22;347;48.780;9.158;2024-01-11T02:00:49;3.20;14.70
728;DHT22;347;48.780;9.158;2024-01-11T02:03:16;3.20;14.30
728;DHT22;347;48.780;9.158;2024-01-11T02:05:42;3.20;14.30
728;DHT22;347;48.780;9.158;2024-01-11T02:08:08;3.30;14.00
728;DHT22;347;48.780;9.158;2024-01-11T02:10:37;3.30;13.80
728;DHT22;347;48.780;9.158;2024-01-11T02:13:03;3.40;13.70
728;DHT22;347;48.780;9.158;2024-01-11T02:15:30;3.40;13.80
728;DHT22;347;48.780;9.158;2024-01-11T02:17:55;3.10;14.40
728;DHT22;347;48.780;9.158;2024-01-11T02:20:21;3.00;14.70
728;DHT22;347;48.780;9.158;2024-01-11T02:22:50;3.10;14.40
728;DHT22;347;48.780;9.158;2024-01-11T02:25:18;3.00;14.20
728;DHT22;347;48.780;9.158;2024-01-11T02:27:47;2.70;14.80
728;DHT22;347;48.780;9.158;2024-01-11T02:30:13;2.50;16.00
728;DHT22;347;48.780;9.158;2024-01-11T02:32:39;2.60;15.50
728;DHT22;347;48.780;9.158;2024-01-11T02:35:06;2.70;15.00
728;DHT22;347;48.780;9.158;2024-01-11T02:37:32;2.90;14.90
728;DHT22;347;48.780;9.158;2024-01-11T02:39:57;3.00;14.40
728;DHT22;347;48.780;9.158;2024-01-11T02:42:23;3.10;14.10
728;DHT22;347;48.780;9.158;2024-01-11T02:44:48;3.30;13.90
728;DHT22;347;48.780;9.158;2024-01-11T02:47:14;3.20;13.90
728;DHT22;347;48.780;9.158;2024-01-11T02:49:39;3.30;13.80
728;DHT22;347;48.780;9.158;2024-01-11T02:52:05;3.20;13.80
728;DHT22;347;48.780;9.158;2024-01-11T02:54:30;3.20;13.80
728;DHT22;347;48.780;9.158;2024-01-11T02:56:56;3.20;13.80
728;DHT22;347;48.780;9.158;2024-01-11T02:59:22;3.20;13.60
728;DHT22;347;48.780;9.158;2024-01-11T03:01:49;3.20;13.70
728;DHT22;347;48.780;9.158;2024-01-11T03:04:15;3.20;13.60
728;DHT22;347;48.780;9.158;2024-01-11T03:06:40;3.00;14.30
728;DHT22;347;48.780;9.158;2024-01-11T03:09:06;3.00;14.30
728;DHT22;347;48.780;9.158;2024-01-11T03:11:31;3.00;14.20
728;DHT22;347;48.780;9.158;2024-01-11T03:13:57;3.10;14.00
728;DHT22;347;48.780;9.158;2024-01-11T03:16:22;3.10;13.80
728;DHT22;347;48.780;9.158;2024-01-11T03:18:48;3.10;14.00
728;DHT22;347;48.780;9.158;2024-01-11T03:21:13;3.00;14.30
728;DHT22;347;48.780;9.158;2024-01-11T03:23:39;3.00;14.30
728;DHT22;347;48.780;9.158;2024-01-11T03:26:20;3.10;13.90
728;DHT22;347;48.780;9.158;2024-01-11T03:28:46;3.00;14.20
728;DHT22;347;48.780;9.158;2024-01-11T03:31:12;2.70;14.50
728;DHT22;347;48.780;9.158;2024-01-11T03:33:37;2.40;15.30
728;DHT22;347;48.780;9.158;2024-01-11T03:36:07;2.30;16.50
728;DHT22;347;48.780;9.158;2024-01-11T03:38:33;2.30;16.30
728;DHT22;347;48.780;9.158;2024-01-11T03:40:59;2.30;16.20
728;DHT22;347;48.780;9.158;2024-01-11T03:43:24;2.40;16.00
728;DHT22;347;48.780;9.158;2024-01-11T03:45:50;2.50;16.10
728;DHT22;347;48.780;9.158;2024-01-11T03:48:15;2.40;16.10
728;DHT22;347;48.780;9.158;2024-01-11T03:50:41;2.60;15.70
728;DHT22;347;48.780;9.158;2024-01-11T03:53:06;2.70;15.20
728;DHT22;347;48.780;9.158;2024-01-11T03:55:33;2.90;14.80
728;DHT22;347;48.780;9.158;2024-01-11T03:57:58;3.00;14.80
728;DHT22;347;48.780;9.158;2024-01-11T04:00:24;2.90;14.70
728;DHT22;347;48.780;9.158;2024-01-11T04:02:49;2.90;14.90
728;DHT22;347;48.780;9.158;2024-01-11T04:05:15;2.90;14.60
728;DHT22;347;48.780;9.158;2024-01-11T04:07:41;3.00;14.50
728;DHT22;347;48.780;9.158;2024-01-11T04:10:07;3.10;14.30
728;DHT22;347;48.780;9.158;2024-01-11T04:12:35;3.10;14.00
728;DHT22;347;48.780;9.158;2024-01-11T04:15:02;3.10;13.90
728;DHT22;347;48.780;9.158;2024-01-11T04:17:27;3.20;14.30
728;DHT22;347;48.780;9.158;2024-01-11T04:19:53;3.00;14.10
728;DHT22;347;48.780;9.158;2024-01-11T04:22:18;2.50;14.60
728;DHT22;347;48.780;9.158;2024-01-11T04:24:44;2.10;15.80
728;DHT22;347;48.780;9.158;2024-01-11T04:27:09;1.80;16.60
728;DHT22;347;48.780;9.158;2024-01-11T04:29:35;1.60;16.90
728;DHT22;347;48.780;9.158;2024-01-11T04:32:01;1.40;17.40
728;DHT22;347;48.780;9.158;2024-01-11T04:34:28;1.30;18.10
728;DHT22;347;48.780;9.158;2024-01-11T04:36:53;1.40;17.90
728;DHT22;347;48.780;9.158;2024-01-11T04:39:19;1.40;18.20
728;DHT22;347;48.780;9.158;2024-01-11T04:41:44;1.40;17.80
728;DHT22;347;48.780;9.158;2024-01-11T04:44:10;1.40;18.00
728;DHT22;347;48.780;9.158;2024-01-11T04:46:38;1.40;17.60
728;DHT22;347;48.780;9.158;2024-01-11T04:49:09;1.30;18.00
728;DHT22;347;48.780;9.158;2024-01-11T04:51:39;1.50;17.70
728;DHT22;347;48.780;9.158;2024-01-11T04:54:05;1.70;17.70
728;DHT22;347;48.780;9.158;2024-01-11T04:56:30;1.70;17.10
728;DHT22;347;48.780;9.158;2024-01-11T04:58:56;1.60;17.10
728;DHT22;347;48.780;9.158;2024-01-11T05:01:22;1.60;17.50
728;DHT22;347;48.780;9.158;2024-01-11T05:03:50;1.60;17.70
728;DHT22;347;48.780;9.158;2024-01-11T05:06:22;1.90;17.20
728;DHT22;347;48.780;9.158;2024-01-11T05:08:55;2.20;16.80
728;DHT22;347;48.780;9.158;2024-01-11T05:11:22;1.90;17.10
728;DHT22;347;48.780;9.158;2024-01-11T05:13:56;2.10;17.30
728;DHT22;347;48.780;9.158;2024-01-11T05:16:28;2.40;16.60
728;DHT22;347;48.780;9.158;2024-01-11T05:19:04;2.70;15.70
728;DHT22;347;48.780;9.158;2024-01-11T05:21:33;2.90;15.10
728;DHT22;347;48.780;9.158;2024-01-11T05:24:02;3.10;14.60
728;DHT22;347;48.780;9.158;2024-01-11T05:26:28;3.10;15.40
728;DHT22;347;48.780;9.158;2024-01-11T05:28:54;3.20;14.30
728;DHT22;347;48.780;9.158;2024-01-11T05:31:19;3.20;13.90
728;DHT22;347;48.780;9.158;2024-01-11T05:33:45;3.30;13.70
728;DHT22;347;48.780;9.158;2024-01-11T05:36:11;3.30;13.60
728;DHT22;347;48.780;9.158;2024-01-11T05:38:38;3.30;13.40
728;DHT22;347;48.780;9.158;2024-01-11T05:41:05;3.10;13.70
728;DHT22;347;48.780;9.158;2024-01-11T05:43:30;2.90;13.60
728;DHT22;347;48.780;9.158;2024-01-11T05:45:56;2.70;14.80
728;DHT22;347;48.780;9.158;2024-01-11T05:48:21;2.60;14.90
728;DHT22;347;48.780;9.158;2024-01-11T05:50:47;2.70;14.90
728;DHT22;347;48.780;9.158;2024-01-11T05:53:21;2.90;14.70
728;DHT22;347;48.780;9.158;2024-01-11T05:55:51;2.90;14.50
728;DHT22;347;48.780;9.158;2024-01-11T05:58:19;2.90;14.40
728;DHT22;347;48.780;9.158;2024-01-11T06:00:52;2.90;14.20
728;DHT22;347;48.780;9.158;2024-01-11T06:03:31;2.80;14.30
728;DHT22;347;48.780;9.158;2024-01-11T06:06:01;2.80;14.30
728;DHT22;347;48.780;9.158;2024-01-11T06:08:28;2.80;14.20
728;DHT22;347;48.780;9.158;2024-01-11T06:11:00;2.70;14.20
728;DHT22;347;48.780;9.158;2024-01-11T06:13:30;2.70;14.20
728;DHT22;347;48.780;9.158;2024-01-11T06:15:58;2.80;14.20
728;DHT22;347;48.780;9.158;2024-01-11T06:18:24;2.70;14.20
728;DHT22;347;48.780;9.158;2024-01-11T06:20:52;2.70;14.30
728;DHT22;347;48.780;9.158;2024-01-11T06:23:49;2.70;14.40
728;DHT22;347;48.780;9.158;2024-01-11T06:26:19;2.70;14.30
728;DHT22;347;48.780;9.158;2024-01-11T06:28:47;2.70;14.50
728;DHT22;347;48.780;9.158;2024-01-11T06:31:18;2.70;14.40
728;DHT22;347;48.780;9.158;2024-01-11T06:33:52;2.80;14.50
728;DHT22;347;48.780;9.158;2024-01-11T06:36:18;2.70;14.10
728;DHT22;347;48.780;9.158;2024-01-11T06:41:32;2.00;16.50
728;DHT22;347;48.780;9.158;2024-01-11T06:44:12;2.10;16.00
728;DHT22;347;48.780;9.158;2024-01-11T06:46:38;2.40;15.50
728;DHT22;347;48.780;9.158;2024-01-11T06:49:09;2.50;15.20
728;DHT22;347;48.780;9.158;2024-01-11T06:51:34;2.50;15.00
728;DHT22;347;48.780;9.158;2024-01-11T06:54:00;2.60;15.00
728;DHT22;347;48.780;9.158;2024-01-11T06:56:51;2.60;14.80
728;DHT22;347;48.780;9.158;2024-01-11T06:59:46;2.70;14.60
728;DHT22;347;48.780;9.158;2024-01-11T07:02:17;2.70;14.40
728;DHT22;347;48.780;9.158;2024-01-11T07:04:46;2.80;14.40
728;DHT22;347;48.780;9.158;2024-01-11T07:07:28;2.70;14.30
728;DHT22;347;48.780;9.158;2024-01-11T07:09:54;2.80;14.30
728;DHT22;347;48.780;9.158;2024-01-11T07:12:21;2.80;14.40
728;DHT22;347;48.780;9.158;2024-01-11T07:14:46;2.80;14.50
728;DHT22;347;48.780;9.158;2024-01-11T07:17:27;2.80;14.40
728;DHT22;347;48.780;9.158;2024-01-11T07:19:52;2.80;14.30
728;DHT22;347;48.780;9.158;2024-01-11T07:22:18;2.80;14.80
728;DHT22;347;48.780;9.158;2024-01-11T07:24:50;2.70;14.40
728;DHT22;347;48.780;9.158;2024-01-11T07:27:15;2.60;15.10
728;DHT22;347;48.780;9.158;2024-01-11T07:29:41;2.60;14.90
728;DHT22;347;48.780;9.158;2024-01-11T07:32:08;2.70;15.10
728;DHT22;347;48.780;9.158;2024-01-11T07:34:35;2.80;14.80
728;DHT22;347;48.780;9.158;2024-01-11T07:37:01;2.80;14.70
728;DHT22;347;48.780;9.158;2024-01-11T07:39:27;2.80;14.70
728;DHT22;347;48.780;9.158;2024-01-11T07:41:53;2.80;14.60
728;DHT22;347;48.780;9.158;2024-01-11T07:44:18;2.70;15.10
728;DHT22;347;48.780;9.158;2024-01-11T07:46:45;2.80;14.70
728;DHT22;347;48.780;9.158;2024-01-11T07:49:14;2.80;14.60
728;DHT22;347;48.780;9.158;2024-01-11T07:51:44;2.60;14.90
728;DHT22;347;48.780;9.158;2024-01-11T07:54:11;2.00;16.10
728;DHT22;347;48.780;9.158;2024-01-11T07:56:37;2.10;16.50
728;DHT22;347;48.780;9.158;2024-01-11T07:59:03;2.20;16.10
728;DHT22;347;48.780;9.158;2024-01-11T08:01:29;2.20;16.00
728;DHT22;347;48.780;9.158;2024-01-11T08:03:55;2.20;15.80
728;DHT22;347;48.780;9.158;2024-01-11T08:06:20;2.30;15.80
728;DHT22;347;48.780;9.158;2024-01-11T08:08:46;2.40;15.80
728;DHT22;347;48.780;9.158;2024-01-11T08:11:17;2.50;15.50
728;DHT22;347;48.780;9.158;2024-01-11T08:13:42;2.50;15.30
728;DHT22;347;48.780;9.158;2024-01-11T08:16:08;2.40;15.30
728;DHT22;347;48.780;9.158;2024-01-11T08:18:35;2.30;16.00
728;DHT22;347;48.780;9.158;2024-01-11T08:21:00;2.30;16.30
728;DHT22;347;48.780;9.158;2024-01-11T08:23:27;2.30;18.60
728;DHT22;347;48.780;9.158;2024-01-11T08:25:54;2.40;18.30
728;DHT22;347;48.780;9.158;2024-01-11T08:28:20;2.50;18.40
728;DHT22;347;48.780;9.158;2024-01-11T08:31:22;2.70;18.20
728;DHT22;347;48.780;9.158;2024-01-11T08:34:31;2.70;15.50
728;DHT22;347;48.780;9.158;2024-01-11T08:36:56;2.50;15.60
728;DHT22;347;48.780;9.158;2024-01-11T08:39:31;2.50;15.20
728;DHT22;347;48.780;9.158;2024-01-11T08:41:57;2.60;15.50
728;DHT22;347;48.780;9.158;2024-01-11T08:44:29;2.70;14.70
728;DHT22;347;48.780;9.158;2024-01-11T08:46:56;2.60;14.90
728;DHT22;347;48.780;9.158;2024-01-11T08:49:22;2.60;14.90
728;DHT22;347;48.780;9.158;2024-01-11T08:51:48;2.50;15.20
728;DHT22;347;48.780;9.158;2024-01-11T08:54:13;2.50;15.10
728;DHT22;347;48.780;9.158;2024-01-11T08:56:42;2.50;15.70
728;DHT22;347;48.780;9.158;2024-01-11T08:59:07;2.50;14.90
728;DHT22;347;48.780;9.158;2024-01-11T09:01:35;2.40;15.80
728;DHT22;347;48.780;9.158;2024-01-11T09:04:04;2.40;15.50
728;DHT22;347;48.780;9.158;2024-01-11T09:06:32;2.20;15.60
728;DHT22;347;48.780;9.158;2024-01-11T09:08:58;1.70;16.80
728;DHT22;347;48.780;9.158;2024-01-11T09:11:24;1.70;17.20
728;DHT22;347;48.780;9.158;2024-01-11T09:13:55;1.80;17.50
728;DHT22;347;48.780;9.158;2024-01-11T09:16:35;2.10;16.90
728;DHT22;347;48.780;9.158;2024-01-11T09:19:01;2.40;15.90
728;DHT22;347;48.780;9.158;2024-01-11T09:21:27;2.70;15.50
728;DHT22;347;48.780;9.158;2024-01-11T09:23:52;2.90;15.10
728;DHT22;347;48.780;9.158;2024-01-11T09:26:18;3.10;14.50
728;DHT22;347;48.780;9.158;2024-01-11T09:28:46;3.10;14.30
728;DHT22;347;48.780;9.158;2024-01-11T09:31:15;3.10;14.10
728;DHT22;347;48.780;9.158;2024-01-11T09:34:11;3.10;14.10
728;DHT22;347;48.780;9.158;2024-01-11T09:36:37;3.10;14.10
728;DHT22;347;48.780;9.158;2024-01-11T09:39:35;3.10;14.10
728;DHT22;347;48.780;9.158;2024-01-11T09:42:13;3.20;14.10
728;DHT22;347;48.780;9.158;2024-01-11T09:44:43;3.10;13.90
728;DHT22;347;48.780;9.158;2024-01-11T09:47:15;3.20;13.70
728;DHT22;347;48.780;9.158;2024-01-11T09:49:44;3.30;13.20
728;DHT22;347;48.780;9.158;2024-01-11T09:52:11;3.30;13.00
728;DHT22;347;48.780;9.158;2024-01-11T09:54:43;3.30;13.30
728;DHT22;347;48.780;9.158;2024-01-11T09:57:09;3.40;13.30
728;DHT22;347;48.780;9.158;2024-01-11T09:59:37;3.30;13.30
728;DHT22;347;48.780;9.158;2024-01-11T10:02:04;3.30;13.60
728;DHT22;347;48.780;9.158;2024-01-11T10:04:33;3.10;14.10
728;DHT22;347;48.780;9.158;2024-01-11T10:07:00;3.00;14.00
728;DHT22;347;48.780;9.158;2024-01-11T10:09:27;3.10;14.20
728;DHT22;347;48.780;9.158;2024-01-11T10:11:53;3.10;13.80
728;DHT22;347;48.780;9.158;2024-01-11T10:14:21;3.10;13.80
728;DHT22;347;48.780;9.158;2024-01-11T10:16:54;3.00;13.90
728;DHT22;347;48.780;9.158;2024-01-11T10:19:20;2.80;15.00
728;DHT22;347;48.780;9.158;2024-01-11T10:21:46;2.50;15.00
728;DHT22;347;48.780;9.158;2024-01-11T10:24:18;2.40;15.40
728;DHT22;347;48.780;9.158;2024-01-11T10:26:44;2.40;15.70
728;DHT22;347;48.780;9.158;2024-01-11T10:29:09;2.20;16.50
728;DHT22;347;48.780;9.158;2024-01-11T10:31:36;2.40;16.00
728;DHT22;347;48.780;9.158;2024-01-11T10:34:04;2.60;15.70
728;DHT22;347;48.780;9.158;2024-01-11T10:36:32;2.60;15.00
728;DHT22;347;48.780;9.158;2024-01-11T10:39:02;2.60;15.60
728;DHT22;347;48.780;9.158;2024-01-11T10:41:32;2.60;15.60
728;DHT22;347;48.780;9.158;2024-01-11T10:44:02;2.50;15.20
728;DHT22;347;48.780;9.158;2024-01-11T10:46:29;2.70;15.40
728;DHT22;347;48.780;9.158;2024-01-11T10:48:56;2.80;14.90
728;DHT22;347;48.780;9.158;2024-01-11T10:51:25;2.70;15.20
728;DHT22;347;48.780;9.158;2024-01-11T10:53:54;2.70;15.10
728;DHT22;347;48.780;9.158;2024-01-11T10:56:20;2.70;15.00
728;DHT22;347;48.780;9.158;2024-01-11T10:58:47;2.70;15.50
728;DHT22;347;48.780;9.158;2024-01-11T11:01:13;2.90;15.30
728;DHT22;347;48.780;9.158;2024-01-11T11:03:40;2.90;14.60
728;DHT22;347;48.780;9.158;2024-01-11T11:06:09;2.90;15.10
728;DHT22;347;48.780;9.158;2024-01-11T11:08:37;2.90;15.40
728;DHT22;347;48.780;9.158;2024-01-11T11:11:04;3.10;15.00
728;DHT22;347;48.780;9.158;2024-01-11T11:13:33;3.30;14.50
728;DHT22;347;48.780;9.158;2024-01-11T11:16:02;3.50;14.30
728;DHT22;347;48.780;9.158;2024-01-11T11:18:29;3.70;14.00
728;DHT22;347;48.780;9.158;2024-01-11T11:20:56;3.80;13.60
728;DHT22;347;48.780;9.158;2024-01-11T11:23:22;3.80;13.90
728;DHT22;347;48.780;9.158;2024-01-11T11:25:57;3.80;14.10
728;DHT22;347;48.780;9.158;2024-01-11T11:28:23;3.80;13.70
728;DHT22;347;48.780;9.158;2024-01-11T11:30:49;3.70;13.40
728;DHT22;347;48.780;9.158;2024-01-11T11:33:20;3.70;13.10
728;DHT22;347;48.780;9.158;2024-01-11T11:35:52;3.80;13.30
728;DHT22;347;48.780;9.158;2024-01-11T11:38:22;3.90;13.20
728;DHT22;347;48.780;9.158;2024-01-11T11:40:48;4.00;13.00
728;DHT22;347;48.780;9.158;2024-01-11T11:43:16;4.10;12.80
728;DHT22;347;48.780;9.158;2024-01-11T11:45:47;4.10;12.50
728;DHT22;347;48.780;9.158;2024-01-11T11:51:20;4.10;13.00
728;DHT22;347;48.780;9.158;2024-01-11T11:53:48;4.10;13.10
728;DHT22;347;48.780;9.158;2024-01-11T11:56:21;4.10;12.70
728;DHT22;347;48.780;9.158;2024-01-11T11:58:48;4.20;12.50
728;DHT22;347;48.780;9.158;2024-01-11T12:01:15;4.30;12.20
728;DHT22;347;48.780;9.158;2024-01-11T12:03:43;4.40;12.10
728;DHT22;347;48.780;9.158;2024-01-11T12:06:15;4.40;12.40
728;DHT22;347;48.780;9.158;2024-01-11T12:08:43;4.10;13.40
728;DHT22;347;48.780;9.158;2024-01-11T12:11:19;4.10;12.90
728;DHT22;347;48.780;9.158;2024-01-11T12:13:46;3.90;13.30
728;DHT22;347;48.780;9.158;2024-01-11T12:16:12;3.60;14.10
728;DHT22;347;48.780;9.158;2024-01-11T12:18:37;3.60;14.30
728;DHT22;347;48.780;9.158;2024-01-11T12:21:03;3.40;14.50
728;DHT22;347;48.780;9.158;2024-01-11T12:23:29;3.50;14.30
728;DHT22;347;48.780;9.158;2024-01-11T12:26:01;3.70;13.80
728;DHT22;347;48.780;9.158;2024-01-11T12:28:28;3.70;14.20
728;DHT22;347;48.780;9.158;2024-01-11T12:30:53;3.80;13.80
728;DHT22;347;48.780;9.158;2024-01-11T12:33:19;4.00;13.70
728;DHT22;347;48.780;9.158;2024-01-11T12:35:46;4.10;13.10
728;DHT22;347;48.780;9.158;2024-01-11T12:38:12;4.30;12.70
728;DHT22;347;48.780;9.158;2024-01-11T12:40:38;4.30;12.60
728;DHT22;347;48.780;9.158;2024-01-11T12:43:04;4.30;13.30
728;DHT22;347;48.780;9.158;2024-01-11T12:45:31;4.40;12.60
728;DHT22;347;48.780;9.158;2024-01-11T12:47:58;4.50;12.40
728;DHT22;347;48.780;9.158;2024-01-11T12:50:25;4.60;12.30
728;DHT22;347;48.780;9.158;2024-01-11T12:53:12;4.70;11.90
728;DHT22;347;48.780;9.158;2024-01-11T12:55:46;4.80;12.20
728;DHT22;347;48.780;9.158;2024-01-11T12:58:12;4.80;11.40
728;DHT22;347;48.780;9.158;2024-01-11T13:00:38;4.90;11.60
728;DHT22;347;48.780;9.158;2024-01-11T13:03:05;4.90;11.50
728;DHT22;347;48.780;9.158;2024-01-11T13:05:31;4.90;11.10
728;DHT22;347;48.780;9.158;2024-01-11T13:08:08;5.00;10.90
728;DHT22;347;48.780;9.158;2024-01-11T13:10:34;5.00;11.00
728;DHT22;347;48.780;9.158;2024-01-11T13:13:01;5.00;10.90
728;DHT22;347;48.780;9.158;2024-01-11T13:15:26;5.00;11.20
728;DHT22;347;48.780;9.158;2024-01-11T13:17:52;5.00;10.70
728;DHT22;347;48.780;9.158;2024-01-11T13:20:18;5.10;12.80
728;DHT22;347;48.780;9.158;2024-01-11T13:22:44;5.10;11.40
728;DHT22;347;48.780;9.158;2024-01-11T13:25:09;5.10;11.20
728;DHT22;347;48.780;9.158;2024-01-11T13:27:35;4.80;11.10
728;DHT22;347;48.780;9.158;2024-01-11T13:30:00;4.80;11.40
728;DHT22;347;48.780;9.158;2024-01-11T13:32:26;4.90;11.50
728;DHT22;347;48.780;9.158;2024-01-11T13:34:52;5.00;11.30
728;DHT22;347;48.780;9.158;2024-01-11T13:37:20;5.00;11.10
728;DHT22;347;48.780;9.158;2024-01-11T13:39:46;5.10;11.60
728;DHT22;347;48.780;9.158;2024-01-11T13:42:12;5.20;11.30
728;DHT22;347;48.780;9.158;2024-01-11T13:44:38;5.20;11.10
728;DHT22;347;48.780;9.158;2024-01-11T13:47:04;5.20;11.30
728;DHT22;347;48.780;9.158;2024-01-11T13:49:30;5.20;11.20
728;DHT22;347;48.780;9.158;2024-01-11T13:51:59;5.30;11.40
728;DHT22;347;48.780;9.158;2024-01-11T13:54:25;5.20;11.10
728;DHT22;347;48.780;9.158;2024-01-11T13:56:51;5.20;11.30
728;DHT22;347;48.780;9.158;2024-01-11T13:59:19;5.20;11.10
728;DHT22;347;48.780;9.158;2024-01-11T14:01:54;5.20;11.10
728;DHT22;347;48.780;9.158;2024-01-11T14:04:20;5.20;11.30
728;DHT22;347;48.780;9.158;2024-01-11T14:06:48;5.00;11.40
728;DHT22;347;48.780;9.158;2024-01-11T14:09:16;5.00;11.30
728;DHT22;347;48.780;9.158;2024-01-11T14:11:42;5.10;11.20
728;DHT22;347;48.780;9.158;2024-01-11T14:14:07;5.20;11.30
728;DHT22;347;48.780;9.158;2024-01-11T14:16:33;5.20;11.30
728;DHT22;347;48.780;9.158;2024-01-11T14:18:58;5.30;11.00
728;DHT22;347;48.780;9.158;2024-01-11T14:21:25;5.30;11.00
728;DHT22;347;48.780;9.158;2024-01-11T14:23:50;5.30;11.10
728;DHT22;347;48.780;9.158;2024-01-11T14:26:17;5.20;11.40
728;DHT22;347;48.780;9.158;2024-01-11T14:28:42;5.10;11.40
728;DHT22;347;48.780;9.158;2024-01-11T14:31:08;5.10;11.70
728;DHT22;347;48.780;9.158;2024-01-11T14:33:33;5.10;11.60
728;DHT22;347;48.780;9.158;2024-01-11T14:36:00;5.10;11.70
728;DHT22;347;48.780;9.158;2024-01-11T14:38:26;5.20;11.70
728;DHT22;347;48.780;9.158;2024-01-11T14:40:52;5.20;11.80
728;DHT22;347;48.780;9.158;2024-01-11T14:43:17;5.20;11.50
728;DHT22;347;48.780;9.158;2024-01-11T14:45:43;5.20;11.70
728;DHT22;347;48.780;9.158;2024-01-11T14:48:09;5.20;11.60
728;DHT22;347;48.780;9.158;2024-01-11T14:50:34;5.20;11.50
728;DHT22;347;48.780;9.158;2024-01-11T14:52:59;5.20;11.60
728;DHT22;347;48.780;9.158;2024-01-11T14:55:25;5.10;11.60
728;DHT22;347;48.780;9.158;2024-01-11T14:57:50;5.10;11.70
728;DHT22;347;48.780;9.158;2024-01-11T15:00:17;5.10;11.90
728;DHT22;347;48.780;9.158;2024-01-11T15:02:42;5.20;12.00
728;DHT22;347;48.780;9.158;2024-01-11T15:05:09;5.20;12.10
728;DHT22;347;48.780;9.158;2024-01-11T15:07:35;5.20;12.00
728;DHT22;347;48.780;9.158;2024-01-11T15:10:01;5.30;12.00
728;DHT22;347;48.780;9.158;2024-01-11T15:12:26;5.30;12.30
728;DHT22;347;48.780;9.158;2024-01-11T15:14:52;5.30;11.90
728;DHT22;347;48.780;9.158;2024-01-11T15:17:17;5.30;11.80
728;DHT22;347;48.780;9.158;2024-01-11T15:19:44;5.20;11.80
728;DHT22;347;48.780;9.158;2024-01-11T15:22:09;5.10;11.90
728;DHT22;347;48.780;9.158;2024-01-11T15:24:37;5.10;12.20
728;DHT22;347;48.780;9.158;2024-01-11T15:27:03;5.10;12.60
728;DHT22;347;48.780;9.158;2024-01-11T15:29:29;5.00;12.50
728;DHT22;347;48.780;9.158;2024-01-11T15:31:54;5.00;12.30
728;DHT22;347;48.780;9.158;2024-01-11T15:34:20;5.00;12.50
728;DHT22;347;48.780;9.158;2024-01-11T15:36:45;5.00;12.50
728;DHT22;347;48.780;9.158;2024-01-11T15:39:11;4.90;12.50
728;DHT22;347;48.780;9.158;2024-01-11T15:41:37;5.00;12.50
728;DHT22;347;48.780;9.158;2024-01-11T15:44:03;4.90;12.50
728;DHT22;347;48.780;9.158;2024-01-11T15:46:31;4.90;12.50
728;DHT22;347;48.780;9.158;2024-01-11T15:48:57;4.90;12.40
728;DHT22;347;48.780;9.158;2024-01-11T15:51:23;4.80;12.40
728;DHT22;347;48.780;9.158;2024-01-11T15:53:48;4.80;12.40
728;DHT22;347;48.780;9.158;2024-01-11T15:56:14;4.80;12.40
728;DHT22;347;48.780;9.158;2024-01-11T15:58:40;4.70;13.00
728;DHT22;347;48.780;9.158;2024-01-11T16:01:06;4.70;12.90
728;DHT22;347;48.780;9.158;2024-01-11T16:03:31;4.70;12.80
728;DHT22;347;48.780;9.158;2024-01-11T16:05:57;4.70;12.90
728;DHT22;347;48.780;9.158;2024-01-11T16:08:22;4.60;12.90
728;DHT22;347;48.780;9.158;2024-01-11T16:10:48;4.40;13.90
728;DHT22;347;48.780;9.158;2024-01-11T16:13:13;4.30;13.70
728;DHT22;347;48.780;9.158;2024-01-11T16:15:39;4.10;14.10
728;DHT22;347;48.780;9.158;2024-01-11T16:18:04;4.00;15.70
728;DHT22;347;48.780;9.158;2024-01-11T16:20:30;4.10;14.60
728;DHT22;347;48.780;9.158;2024-01-11T16:22:55;4.30;14.00
728;DHT22;347;48.780;9.158;2024-01-11T16:25:21;4.40;13.60
728;DHT22;347;48.780;9.158;2024-01-11T16:27:46;4.50;13.40
728;DHT22;347;48.780;9.158;2024-01-11T16:30:13;4.00;14.00
728;DHT22;347;48.780;9.158;2024-01-11T16:32:38;4.00;14.50
728;DHT22;347;48.780;9.158;2024-01-11T16:35:04;4.10;14.10
728;DHT22;347;48.780;9.158;2024-01-11T16:37:30;3.90;14.90
728;DHT22;347;48.780;9.158;2024-01-11T16:39:56;3.70;15.40
728;DHT22;347;48.780;9.158;2024-01-11T16:42:22;3.90;15.20
728;DHT22;347;48.780;9.158;2024-01-11T16:44:49;3.50;15.90
728;DHT22;347;48.780;9.158;2024-01-11T16:47:15;3.10;16.80
728;DHT22;347;48.780;9.158;2024-01-11T16:49:42;2.80;17.20
728;DHT22;347;48.780;9.158;2024-01-11T16:52:08;2.50;17.70
728;DHT22;347;48.780;9.158;2024-01-11T16:54:34;2.50;18.40
728;DHT22;347;48.780;9.158;2024-01-11T16:57:00;2.70;18.10
728;DHT22;347;48.780;9.158;2024-01-11T16:59:41;3.10;17.20